Rocky Mount, NC (27804)

1:55 AM EDT en Agosto 22, 2014 (GMT -0400)
City Lake - Rocky Mount | Change Station
CLOSE
Current Station
Estación meteorológica personal
Location: Rocky Mount, NC
Altura: 143 ft
Estaciones meteorológicas cercanas

Alt 143 ft 35.95 °N, 77.82 °W | Updated 29 seconds ago

Partly Cloudy
Parcialmente nublado
78.8 ° F
Sensación térmica 82 ° F
N
0.0
Viento Variable Viento desde Oeste
Gusts 0.0 mph

Hoy
Alta -- | Baja -- ° F
--% Posibilidad de precipitaciones
Ayer
Alta -- | Baja -- ° F
Precip. -- pul
6:35 AM 7:52 PM
Creciente menguante, 10% visible
Presión 30.02 pul
Visibilidad 2.0 Millas
Nubes Baja 10000 ft
Índice de calor 82 ° F
Punto de rocío 75 ° F
Humedad 88%
Precipitaciones 0.00 pul
Espesor de la nieve No disponible.
UV 0 de una escala de 12
Polen 8.00 de una escala de 12
PM2.5 Moderada
Flu Activity No disponible.
SPECI KRWI 220546Z AUTO 00000KT 2SM BR FEW100 23/22 A3002 RMK AO2 T02280222

More Conditions Fewer Conditions

Presión 30.02 pul
Visibilidad 2.0 Millas
Nubes Baja 10000 ft
Índice de calor 82 ° F
Punto de rocío 75 ° F
Humedad 88%
Precipitaciones 0.00 pul
Espesor de la nieve No disponible.
UV 0 de una escala de 12
Polen 8.00 de una escala de 12
PM2.5 Moderada
Flu Activity No disponible.
SPECI KRWI 220546Z AUTO 00000KT 2SM BR FEW100 23/22 A3002 RMK AO2 T02280222

More Conditions Fewer Conditions

10-Day Weather Forecast

Almanac

Astronomía

Aug. 22, 2014 Salida Puesta
Hora real 6:35 AM EDT 7:52 PM EDT
Crepúsculo civil 6:08 AM EDT 8:19 PM EDT
Crepúsculo náutico 5:36 AM EDT 8:50 PM EDT
Crepúsculo astronómico 5:03 AM EDT 9:24 PM EDT
Luna 3:58 AM EDT 5:57 PM EDT
Horas de luz 14h 10m
Horas de luz
13h 17m
Tomorrow will be 2m 6s shorter.
Creciente menguante, 10% of the Moon is Illuminated
Hoy
Creciente menguante
Ago 25
Nueva
Sep 2
Cuarto creciente
Sep 8
Luna llena
Sep 15
Cuarto menguante

Extremos de hoy

Máximos del estado Bajos del estado

Community

WunderPhotos

Upload Photos

1,746,131 ¡fotos cargadas!

Nearby

Calidad del aire

  Calidad del aire Índice AQ Contaminante
Ayer Moderada
PM2.5
Real Moderada
PM2.5
Viernes Moderada
PM2.5
Viernes Buena
OZONE
Sábado Buena
OZONE
Sábado Buena
PM2.5
Domingo Buena
OZONE
Domingo Buena
PM2.5

Grosos de nieve

Estación Profundido Altura
No tenemos constancia de nieve nueva.

Actividad de terremotos

Ciudad Distance Mag. Tiempo y dato
No hay informes recientes de la actividad sísmica.
Magnitud mínima muestra es 2,5.

Temperaturas de aguas costeras

Lugar Temperatura
Sin partes meteorológicos de las estaciones

Estaciones meteorológicas cercanas